createdAt,value
2017-12-16T00:02:09.813Z,7.40
2017-12-16T00:04:37.276Z,7.30
2017-12-16T00:07:04.727Z,7.40
2017-12-16T00:09:32.178Z,7.30
2017-12-16T00:11:59.636Z,7.40
2017-12-16T00:14:27.097Z,7.40
2017-12-16T00:16:54.553Z,7.40
2017-12-16T00:19:22.006Z,7.50
2017-12-16T00:21:49.469Z,7.40
2017-12-16T00:24:16.926Z,7.60
2017-12-16T00:26:44.385Z,7.50
2017-12-16T00:29:11.931Z,7.50
2017-12-16T00:31:40.897Z,7.60
2017-12-16T00:34:08.342Z,7.50
2017-12-16T00:36:35.793Z,7.50
2017-12-16T00:39:04.013Z,7.50
2017-12-16T00:41:31.465Z,7.50
2017-12-16T00:43:58.923Z,7.50
2017-12-16T00:46:26.364Z,7.40
2017-12-16T00:48:53.834Z,7.20
2017-12-16T00:51:21.289Z,7.30
2017-12-16T00:53:48.750Z,7.30
2017-12-16T00:56:16.207Z,7.30
2017-12-16T00:58:43.662Z,7.30
2017-12-16T01:01:11.115Z,7.20
2017-12-16T01:03:38.578Z,7.30
2017-12-16T01:06:06.035Z,7.40
2017-12-16T01:08:33.497Z,7.40
2017-12-16T01:11:00.948Z,7.40
2017-12-16T01:13:28.421Z,7.20
2017-12-16T01:15:55.864Z,6.90
2017-12-16T01:18:23.351Z,6.90
2017-12-16T01:20:50.789Z,7.00
2017-12-16T01:23:18.237Z,7.10
2017-12-16T01:25:45.701Z,7.20
2017-12-16T01:28:13.158Z,7.30
2017-12-16T01:30:40.618Z,7.30
2017-12-16T01:33:08.073Z,7.30
2017-12-16T01:35:48.089Z,7.30
2017-12-16T01:38:28.138Z,7.40
2017-12-16T01:40:55.597Z,7.30
2017-12-16T01:43:23.042Z,7.40
2017-12-16T01:45:50.502Z,7.40
2017-12-16T01:48:17.948Z,7.40
2017-12-16T01:50:45.401Z,7.40
2017-12-16T01:53:12.853Z,7.20
2017-12-16T01:55:40.319Z,7.20
2017-12-16T01:58:07.773Z,7.30
2017-12-16T02:00:35.226Z,7.30
2017-12-16T02:03:02.677Z,7.20
2017-12-16T02:05:30.133Z,7.20
2017-12-16T02:07:57.590Z,7.30
2017-12-16T02:10:25.049Z,7.30
2017-12-16T02:12:52.513Z,7.20
2017-12-16T02:15:19.970Z,7.00
2017-12-16T02:17:47.425Z,7.10
2017-12-16T02:20:14.936Z,7.20
2017-12-16T02:22:42.333Z,7.10
2017-12-16T02:25:09.789Z,7.10
2017-12-16T02:27:37.245Z,7.20
2017-12-16T02:30:05.458Z,7.10
2017-12-16T02:32:32.920Z,7.10
2017-12-16T02:35:00.368Z,7.10
2017-12-16T02:37:27.814Z,7.20
2017-12-16T02:39:56.046Z,7.40
2017-12-16T02:42:23.498Z,7.40
2017-12-16T02:44:50.962Z,7.30
2017-12-16T02:47:18.431Z,7.20
2017-12-16T02:49:45.903Z,7.30
2017-12-16T02:52:14.868Z,7.20
2017-12-16T02:54:42.330Z,7.20
2017-12-16T02:57:09.773Z,7.20
2017-12-16T02:59:37.233Z,7.20
2017-12-16T03:02:04.677Z,7.20
2017-12-16T03:04:32.134Z,7.20
2017-12-16T03:06:59.582Z,7.10
2017-12-16T03:09:27.054Z,7.10
2017-12-16T03:11:54.513Z,7.10
2017-12-16T03:14:21.966Z,7.10
2017-12-16T03:16:50.193Z,7.00
2017-12-16T03:19:17.653Z,7.00
2017-12-16T03:21:45.111Z,7.10
2017-12-16T03:24:13.326Z,6.90
2017-12-16T03:26:40.811Z,6.90
2017-12-16T03:29:08.266Z,6.70
2017-12-16T03:31:35.725Z,6.50
2017-12-16T03:34:03.170Z,6.70
2017-12-16T03:36:30.633Z,6.60
2017-12-16T03:38:58.081Z,6.70
2017-12-16T03:41:25.544Z,6.60
2017-12-16T03:43:53.002Z,6.70
2017-12-16T03:46:20.491Z,6.70
2017-12-16T03:48:47.935Z,6.70
2017-12-16T03:51:15.502Z,6.70
2017-12-16T03:53:42.960Z,6.70
2017-12-16T03:56:10.397Z,6.60
2017-12-16T03:58:37.861Z,6.60
2017-12-16T04:01:05.318Z,6.70
2017-12-16T04:03:32.769Z,6.70
2017-12-16T04:06:00.219Z,6.70
2017-12-16T04:08:28.442Z,6.70
2017-12-16T04:10:56.665Z,6.70
2017-12-16T04:13:24.117Z,6.70
2017-12-16T04:15:51.565Z,6.70
2017-12-16T04:18:19.026Z,6.70
2017-12-16T04:20:46.477Z,6.70
2017-12-16T04:23:13.930Z,6.60
2017-12-16T04:25:41.378Z,6.60
2017-12-16T04:28:09.598Z,6.50
2017-12-16T04:30:37.814Z,6.50
2017-12-16T04:33:06.045Z,6.50
2017-12-16T04:35:33.494Z,6.60
2017-12-16T04:38:00.946Z,6.50
2017-12-16T04:40:28.418Z,6.30
2017-12-16T04:42:55.862Z,6.30
2017-12-16T04:45:23.317Z,6.50
2017-12-16T04:47:50.765Z,6.60
2017-12-16T04:50:18.995Z,6.80
2017-12-16T04:52:46.459Z,6.80
2017-12-16T04:55:14.677Z,6.80
2017-12-16T04:57:42.129Z,6.80
2017-12-16T05:00:09.589Z,6.80
2017-12-16T05:02:37.041Z,6.80
2017-12-16T05:05:04.504Z,6.60
2017-12-16T05:07:31.945Z,6.60
2017-12-16T05:09:59.418Z,6.90
2017-12-16T05:12:26.862Z,6.80
2017-12-16T05:14:54.333Z,6.90
2017-12-16T05:17:21.772Z,6.90
2017-12-16T05:19:49.235Z,6.90
2017-12-16T05:22:17.454Z,6.80
2017-12-16T05:24:44.917Z,6.80
2017-12-16T05:27:12.361Z,6.80
2017-12-16T05:29:39.824Z,6.90
2017-12-16T05:32:07.265Z,7.20
2017-12-16T05:34:34.717Z,7.20
2017-12-16T05:37:02.177Z,7.10
2017-12-16T05:39:29.637Z,7.00
2017-12-16T05:41:57.085Z,7.20
2017-12-16T05:44:24.553Z,7.10
2017-12-16T05:46:52.002Z,6.90
2017-12-16T05:49:19.449Z,6.80
2017-12-16T05:51:46.910Z,7.00
2017-12-16T05:54:14.362Z,7.00
2017-12-16T05:56:42.581Z,6.90
2017-12-16T05:59:10.033Z,6.90
2017-12-16T06:01:37.498Z,6.90
2017-12-16T06:04:04.944Z,6.80
2017-12-16T06:06:32.420Z,6.70
2017-12-16T06:08:59.862Z,6.60
2017-12-16T06:11:27.314Z,6.50
2017-12-16T06:13:54.768Z,6.50
2017-12-16T06:16:22.986Z,6.40
2017-12-16T06:18:50.446Z,6.30
2017-12-16T06:21:17.914Z,6.30
2017-12-16T06:23:45.365Z,6.20
2017-12-16T06:26:12.818Z,6.20
2017-12-16T06:28:40.271Z,6.20
2017-12-16T06:31:08.492Z,6.50
2017-12-16T06:33:35.953Z,6.40
2017-12-16T06:36:03.409Z,6.30
2017-12-16T06:38:30.857Z,6.50
2017-12-16T06:40:58.325Z,6.30
2017-12-16T06:43:25.774Z,6.40
2017-12-16T06:45:53.240Z,6.40
2017-12-16T06:48:20.702Z,6.40
2017-12-16T06:50:48.162Z,6.50
2017-12-16T06:53:16.371Z,6.60
2017-12-16T06:55:44.609Z,6.60
2017-12-16T06:58:12.075Z,6.60
2017-12-16T07:00:39.524Z,6.60
2017-12-16T07:03:06.986Z,6.40
2017-12-16T07:05:34.438Z,6.40
2017-12-16T07:08:01.900Z,6.30
2017-12-16T07:10:29.354Z,6.30
2017-12-16T07:12:56.814Z,6.20
2017-12-16T07:15:24.473Z,6.20
2017-12-16T07:17:51.926Z,6.20
2017-12-16T07:20:19.384Z,6.20
2017-12-16T07:22:46.845Z,6.10
2017-12-16T07:25:14.302Z,6.10
2017-12-16T07:27:42.514Z,6.20
2017-12-16T07:30:09.963Z,6.20
2017-12-16T07:32:38.197Z,6.10
2017-12-16T07:35:05.650Z,6.10
2017-12-16T07:37:33.117Z,6.00
2017-12-16T07:40:00.565Z,6.10
2017-12-16T07:42:28.037Z,6.10
2017-12-16T07:44:55.495Z,6.10
2017-12-16T07:47:22.950Z,6.10
2017-12-16T07:49:50.414Z,6.10
2017-12-16T07:52:17.890Z,6.10
2017-12-16T07:54:46.113Z,6.20
2017-12-16T07:57:13.567Z,6.20
2017-12-16T07:59:41.024Z,6.60
2017-12-16T08:02:08.492Z,6.80
2017-12-16T08:04:35.969Z,7.00
2017-12-16T08:07:03.425Z,6.80
2017-12-16T08:09:30.885Z,6.60
2017-12-16T08:11:58.349Z,6.80
2017-12-16T08:14:25.813Z,6.90
2017-12-16T08:16:53.269Z,6.90
2017-12-16T08:19:20.727Z,6.80
2017-12-16T08:21:48.182Z,6.80
2017-12-16T08:24:15.642Z,6.70
2017-12-16T08:26:43.093Z,6.60
2017-12-16T08:29:10.558Z,6.40
2017-12-16T08:31:38.065Z,6.60
2017-12-16T08:34:05.466Z,6.60
2017-12-16T08:36:32.913Z,6.60
2017-12-16T08:39:00.365Z,6.80
2017-12-16T08:41:27.822Z,7.20
2017-12-16T08:43:55.335Z,7.30
2017-12-16T08:46:22.744Z,7.50
2017-12-16T08:48:50.209Z,7.60
2017-12-16T08:51:17.670Z,7.60
2017-12-16T08:53:45.113Z,7.70
2017-12-16T08:56:12.570Z,7.80
2017-12-16T08:58:40.031Z,7.90
2017-12-16T09:01:07.489Z,8.00
2017-12-16T09:03:34.929Z,8.00
2017-12-16T09:06:02.387Z,7.80
2017-12-16T09:08:29.833Z,7.70
2017-12-16T09:10:57.294Z,7.60
2017-12-16T09:13:24.753Z,7.70
2017-12-16T09:15:52.205Z,7.70
2017-12-16T09:18:19.674Z,7.70
2017-12-16T09:20:47.140Z,7.90
2017-12-16T09:23:14.597Z,7.90
2017-12-16T09:25:42.053Z,7.80
2017-12-16T09:28:09.502Z,7.70
2017-12-16T09:30:36.950Z,7.60
2017-12-16T09:33:04.424Z,7.60
2017-12-16T09:35:31.881Z,7.70
2017-12-16T09:37:59.329Z,7.70
2017-12-16T09:40:26.778Z,7.70
2017-12-16T09:42:54.250Z,7.70
2017-12-16T09:45:21.689Z,7.60
2017-12-16T09:47:49.150Z,7.60
2017-12-16T09:50:16.634Z,7.50
2017-12-16T09:52:44.147Z,7.50
2017-12-16T09:55:11.689Z,7.90
2017-12-16T09:57:39.161Z,7.90
2017-12-16T10:00:07.371Z,8.10
2017-12-16T10:02:34.821Z,8.10
2017-12-16T10:05:02.274Z,8.40
2017-12-16T10:07:29.742Z,8.60
2017-12-16T10:09:57.188Z,8.70
2017-12-16T10:12:24.642Z,9.00
2017-12-16T10:14:52.081Z,9.10
2017-12-16T10:17:19.541Z,9.20
2017-12-16T10:19:47.039Z,9.60
2017-12-16T10:22:14.445Z,9.70
2017-12-16T10:24:41.886Z,10.00
2017-12-16T10:27:09.341Z,10.40
2017-12-16T10:29:36.785Z,10.80
2017-12-16T10:32:04.253Z,11.00
2017-12-16T10:34:31.693Z,11.10
2017-12-16T10:36:59.153Z,11.50
2017-12-16T10:39:26.618Z,11.70
2017-12-16T10:41:55.586Z,11.40
2017-12-16T10:44:23.046Z,11.40
2017-12-16T10:46:50.490Z,11.30
2017-12-16T10:49:17.959Z,10.80
2017-12-16T10:51:45.410Z,10.80
2017-12-16T10:54:12.874Z,11.40
2017-12-16T10:56:40.326Z,11.70
2017-12-16T10:59:07.785Z,11.80
2017-12-16T11:01:35.255Z,11.60
2017-12-16T11:04:02.707Z,11.10
2017-12-16T11:06:30.166Z,10.90
2017-12-16T11:08:57.625Z,10.90
2017-12-16T11:11:25.077Z,10.80
2017-12-16T11:13:52.545Z,10.40
2017-12-16T11:16:19.989Z,10.20
2017-12-16T11:18:47.450Z,10.20
2017-12-16T11:21:14.905Z,10.10
2017-12-16T11:23:42.365Z,9.90
2017-12-16T11:26:09.820Z,9.90
2017-12-16T11:28:37.273Z,10.20
2017-12-16T11:31:04.725Z,10.80
2017-12-16T11:33:32.184Z,11.60
2017-12-16T11:35:59.647Z,13.50
2017-12-16T11:38:27.093Z,15.10
2017-12-16T11:40:54.562Z,15.70
2017-12-16T11:43:22.010Z,15.40
2017-12-16T11:45:49.465Z,16.30
2017-12-16T11:48:16.914Z,17.50
2017-12-16T11:50:44.369Z,16.40
2017-12-16T11:53:14.713Z,15.80
2017-12-16T11:55:42.929Z,14.20
2017-12-16T11:58:11.137Z,12.80
2017-12-16T12:00:38.600Z,12.70
2017-12-16T12:03:06.053Z,12.50
2017-12-16T12:05:33.521Z,12.20
2017-12-16T12:08:00.978Z,14.10
2017-12-16T12:10:28.438Z,15.70
2017-12-16T12:12:55.898Z,14.90
2017-12-16T12:15:23.384Z,14.50
2017-12-16T12:17:50.842Z,14.70
2017-12-16T12:20:19.058Z,14.20
2017-12-16T12:22:47.274Z,14.80
2017-12-16T12:25:14.734Z,14.70
2017-12-16T12:27:42.208Z,15.20
2017-12-16T12:30:09.674Z,15.30
2017-12-16T12:32:37.135Z,14.70
2017-12-16T12:35:05.353Z,13.80
2017-12-16T12:37:32.814Z,13.70
2017-12-16T12:40:00.278Z,12.90
2017-12-16T12:42:27.814Z,12.40
2017-12-16T12:44:55.246Z,12.20
2017-12-16T12:47:22.740Z,11.90
2017-12-16T12:49:50.177Z,11.70
2017-12-16T12:52:17.629Z,11.40
2017-12-16T12:54:45.075Z,11.40
2017-12-16T12:57:13.288Z,11.20
2017-12-16T12:59:40.745Z,11.10
2017-12-16T13:02:10.133Z,11.10
2017-12-16T13:04:37.586Z,11.00
2017-12-16T13:07:05.035Z,10.90
2017-12-16T13:09:32.489Z,10.60
2017-12-16T13:12:00.725Z,10.40
2017-12-16T13:14:28.178Z,10.40
2017-12-16T13:16:55.644Z,10.20
2017-12-16T13:19:23.203Z,10.30
2017-12-16T13:21:50.702Z,10.00
2017-12-16T13:24:18.150Z,10.00
2017-12-16T13:26:46.362Z,9.90
2017-12-16T13:29:13.813Z,9.90
2017-12-16T13:31:41.249Z,9.80
2017-12-16T13:34:08.703Z,9.80
2017-12-16T13:36:37.997Z,9.80
2017-12-16T13:39:06.220Z,9.80
2017-12-16T13:41:33.665Z,9.80
2017-12-16T13:44:01.123Z,10.40
2017-12-16T13:46:28.582Z,11.00
2017-12-16T13:48:56.038Z,11.40
2017-12-16T13:51:23.477Z,11.30
2017-12-16T13:53:50.970Z,11.30
2017-12-16T13:56:18.406Z,11.40
2017-12-16T13:58:45.867Z,11.60
2017-12-16T14:01:13.327Z,11.80
2017-12-16T14:03:40.785Z,11.50
2017-12-16T14:06:08.238Z,11.60
2017-12-16T14:08:35.700Z,11.50
2017-12-16T14:11:03.162Z,11.40
2017-12-16T14:13:30.615Z,11.10
2017-12-16T14:15:58.069Z,11.00
2017-12-16T14:18:25.526Z,10.80
2017-12-16T14:20:53.054Z,10.60
2017-12-16T14:23:21.354Z,10.70
2017-12-16T14:25:48.818Z,10.70
2017-12-16T14:28:16.287Z,10.50
2017-12-16T14:30:43.758Z,10.50
2017-12-16T14:33:11.207Z,10.30
2017-12-16T14:35:38.665Z,10.00
2017-12-16T14:38:06.210Z,9.90
2017-12-16T14:40:33.881Z,9.80
2017-12-16T14:43:01.432Z,9.60
2017-12-16T14:45:29.211Z,9.50
2017-12-16T14:47:56.850Z,9.60
2017-12-16T14:50:24.716Z,9.50
2017-12-16T14:52:52.343Z,9.60
2017-12-16T14:55:19.818Z,9.20
2017-12-16T14:57:47.278Z,9.00
2017-12-16T15:00:14.915Z,9.00
2017-12-16T15:02:43.138Z,8.80
2017-12-16T15:05:10.582Z,8.70
2017-12-16T15:07:38.044Z,8.60
2017-12-16T15:10:05.486Z,8.60
2017-12-16T15:12:32.935Z,8.60
2017-12-16T15:15:01.151Z,8.60
2017-12-16T15:17:28.598Z,8.60
2017-12-16T15:19:56.079Z,8.40
2017-12-16T15:22:23.646Z,8.30
2017-12-16T15:24:51.090Z,8.00
2017-12-16T15:27:18.534Z,8.00
2017-12-16T15:29:45.977Z,8.10
2017-12-16T15:32:13.435Z,8.10
2017-12-16T15:34:40.878Z,8.10
2017-12-16T15:37:09.342Z,8.10
2017-12-16T15:39:37.551Z,8.20
2017-12-16T15:42:05.077Z,8.20
2017-12-16T15:44:33.288Z,8.40
2017-12-16T15:47:00.744Z,8.40
2017-12-16T15:49:28.192Z,8.20
2017-12-16T15:51:55.626Z,8.20
2017-12-16T15:54:23.074Z,8.20
2017-12-16T15:56:51.286Z,8.20
2017-12-16T15:59:18.745Z,8.30
2017-12-16T16:01:46.186Z,8.50
2017-12-16T16:04:13.638Z,8.40
2017-12-16T16:06:41.076Z,8.40
2017-12-16T16:09:09.368Z,8.40
2017-12-16T16:11:37.573Z,8.40
2017-12-16T16:14:05.029Z,8.40
2017-12-16T16:16:32.485Z,8.40
2017-12-16T16:18:59.941Z,8.50
2017-12-16T16:21:27.461Z,8.40
2017-12-16T16:23:56.773Z,8.40
2017-12-16T16:26:24.586Z,8.40
2017-12-16T16:28:53.195Z,8.40
2017-12-16T16:31:20.750Z,8.40
2017-12-16T16:33:48.367Z,8.50
2017-12-16T16:36:16.031Z,8.40
2017-12-16T16:38:44.594Z,8.40
2017-12-16T16:41:12.861Z,8.20
2017-12-16T16:43:40.321Z,8.20
2017-12-16T16:46:10.442Z,8.10
2017-12-16T16:48:38.665Z,8.00
2017-12-16T16:51:06.110Z,8.00
2017-12-16T16:53:33.621Z,7.90
2017-12-16T16:56:01.841Z,7.90
2017-12-16T16:58:29.294Z,7.90
2017-12-16T17:00:57.849Z,8.00
2017-12-16T17:03:25.298Z,7.90
2017-12-16T17:05:53.519Z,7.70
2017-12-16T17:08:20.965Z,7.70
2017-12-16T17:10:48.420Z,7.80
2017-12-16T17:13:15.858Z,7.80
2017-12-16T17:15:44.377Z,7.80
2017-12-16T17:18:11.821Z,7.90
2017-12-16T17:20:39.290Z,7.80
2017-12-16T17:23:06.733Z,7.70
2017-12-16T17:25:34.189Z,7.80
2017-12-16T17:28:01.630Z,7.80
2017-12-16T17:30:29.082Z,7.80
2017-12-16T17:32:56.526Z,7.80
2017-12-16T17:35:24.002Z,7.80
2017-12-16T17:37:51.450Z,7.60
2017-12-16T17:40:19.830Z,7.80
2017-12-16T17:42:48.053Z,7.90
2017-12-16T17:45:15.509Z,7.90
2017-12-16T17:47:42.965Z,7.80
2017-12-16T17:50:10.407Z,7.90
2017-12-16T17:52:37.910Z,8.00
2017-12-16T17:55:05.383Z,8.00
2017-12-16T17:57:33.621Z,8.10
2017-12-16T18:00:01.071Z,8.10
2017-12-16T18:02:28.518Z,8.00
2017-12-16T18:04:56.029Z,7.90
2017-12-16T18:07:24.270Z,7.90
2017-12-16T18:09:51.726Z,7.90
2017-12-16T18:12:19.934Z,7.80
2017-12-16T18:14:47.378Z,7.80
2017-12-16T18:17:14.823Z,7.80
2017-12-16T18:19:42.281Z,7.80
2017-12-16T18:22:09.742Z,7.90
2017-12-16T18:24:37.179Z,7.90
2017-12-16T18:27:04.650Z,8.00
2017-12-16T18:29:32.102Z,7.90
2017-12-16T18:31:59.565Z,7.90
2017-12-16T18:34:27.014Z,7.80
2017-12-16T18:36:54.457Z,7.80
2017-12-16T18:39:21.931Z,7.80
2017-12-16T18:41:49.371Z,7.70
2017-12-16T18:44:16.817Z,7.60
2017-12-16T18:46:44.273Z,7.50
2017-12-16T18:49:11.729Z,7.50
2017-12-16T18:51:39.170Z,7.50
2017-12-16T18:54:06.622Z,8.80
2017-12-16T18:56:34.059Z,8.30
2017-12-16T19:01:35.378Z,8.00
2017-12-16T19:04:02.833Z,7.90
2017-12-16T19:06:30.282Z,7.70
2017-12-16T19:08:57.738Z,7.60
2017-12-16T19:11:25.173Z,7.50
2017-12-16T19:13:52.626Z,7.60
2017-12-16T19:16:20.063Z,7.80
2017-12-16T19:18:48.282Z,7.40
2017-12-16T19:21:15.750Z,7.40
2017-12-16T19:23:43.194Z,7.20
2017-12-16T19:26:10.640Z,7.40
2017-12-16T19:28:38.081Z,7.30
2017-12-16T19:31:06.293Z,7.40
2017-12-16T19:33:33.947Z,7.40
2017-12-16T19:36:01.610Z,7.40
2017-12-16T19:38:29.067Z,7.50
2017-12-16T19:40:57.590Z,7.40
2017-12-16T19:43:25.020Z,7.30
2017-12-16T19:45:54.401Z,7.20
2017-12-16T19:48:21.845Z,7.10
2017-12-16T19:50:50.332Z,7.20
2017-12-16T19:53:17.810Z,7.20
2017-12-16T19:55:45.277Z,7.10
2017-12-16T19:58:12.755Z,7.40
2017-12-16T20:00:41.008Z,7.10
2017-12-16T20:03:08.465Z,7.10
2017-12-16T20:05:35.914Z,7.10
2017-12-16T20:08:03.354Z,7.00
2017-12-16T20:10:30.815Z,7.10
2017-12-16T20:12:58.257Z,7.00
2017-12-16T20:15:25.726Z,7.10
2017-12-16T20:17:53.172Z,7.30
2017-12-16T20:20:21.404Z,7.30
2017-12-16T20:22:48.838Z,7.20
2017-12-16T20:25:16.369Z,7.20
2017-12-16T20:27:43.810Z,7.30
2017-12-16T20:30:12.038Z,7.10
2017-12-16T20:32:41.386Z,7.10
2017-12-16T20:35:10.369Z,7.00
2017-12-16T20:37:37.834Z,7.00
2017-12-16T20:40:06.054Z,6.90
2017-12-16T20:42:33.502Z,6.90
2017-12-16T20:45:01.189Z,7.00
2017-12-16T20:47:28.677Z,7.00
2017-12-16T20:49:56.146Z,7.00
2017-12-16T20:52:23.597Z,7.10
2017-12-16T20:54:51.038Z,6.90
2017-12-16T20:57:20.006Z,6.90
2017-12-16T20:59:47.453Z,7.00
2017-12-16T21:02:14.917Z,6.90
2017-12-16T21:04:42.421Z,6.90
2017-12-16T21:07:10.658Z,7.00
2017-12-16T21:09:38.146Z,6.90
2017-12-16T21:12:05.553Z,6.90
2017-12-16T21:14:33.002Z,7.00
2017-12-16T21:17:00.438Z,6.90
2017-12-16T21:19:27.874Z,6.90
2017-12-16T21:21:55.321Z,6.90
2017-12-16T21:24:22.769Z,6.90
2017-12-16T21:26:50.227Z,6.90
2017-12-16T21:29:17.668Z,7.00
2017-12-16T21:31:45.134Z,6.90
2017-12-16T21:34:12.630Z,6.90
2017-12-16T21:36:40.170Z,6.90
2017-12-16T21:39:07.737Z,7.00
2017-12-16T21:41:36.683Z,6.90
2017-12-16T21:44:04.138Z,6.90
2017-12-16T21:46:31.658Z,6.90
2017-12-16T21:48:59.874Z,6.80
2017-12-16T21:51:27.663Z,6.80
2017-12-16T21:53:55.106Z,6.80
2017-12-16T21:56:22.622Z,6.80
2017-12-16T21:58:50.875Z,6.80
2017-12-16T22:01:18.318Z,6.80
2017-12-16T22:03:45.819Z,6.80
2017-12-16T22:06:13.249Z,6.80
2017-12-16T22:08:40.698Z,6.80
2017-12-16T22:11:08.162Z,6.70
2017-12-16T22:13:36.395Z,6.70
2017-12-16T22:16:03.852Z,6.70
2017-12-16T22:18:31.305Z,6.70
2017-12-16T22:20:58.804Z,6.70
2017-12-16T22:23:26.242Z,6.70
2017-12-16T22:25:53.703Z,6.70
2017-12-16T22:28:21.154Z,6.70
2017-12-16T22:30:48.607Z,6.70
2017-12-16T22:33:16.081Z,6.90
2017-12-16T22:35:43.530Z,6.90
2017-12-16T22:38:10.983Z,6.90
2017-12-16T22:40:38.437Z,6.90
2017-12-16T22:43:05.873Z,7.20
2017-12-16T22:45:33.390Z,7.50
2017-12-16T22:48:01.624Z,7.00
2017-12-16T22:50:29.073Z,6.90
2017-12-16T22:52:56.529Z,6.70
2017-12-16T22:55:24.005Z,6.70
2017-12-16T22:57:51.451Z,6.60
2017-12-16T23:00:19.042Z,6.70
2017-12-16T23:02:47.521Z,6.70
2017-12-16T23:05:14.968Z,6.70
2017-12-16T23:07:42.430Z,6.60
2017-12-16T23:10:09.873Z,6.60
2017-12-16T23:12:37.323Z,6.60
2017-12-16T23:15:04.773Z,6.60
2017-12-16T23:17:32.287Z,6.50
2017-12-16T23:19:59.660Z,6.50
2017-12-16T23:22:27.106Z,6.40
2017-12-16T23:24:54.667Z,6.50
2017-12-16T23:27:22.892Z,6.50
2017-12-16T23:29:50.418Z,6.50
2017-12-16T23:32:17.874Z,6.60
2017-12-16T23:34:45.489Z,6.60
2017-12-16T23:37:13.113Z,6.60
2017-12-16T23:39:40.827Z,6.60
2017-12-16T23:42:08.276Z,6.60
2017-12-16T23:44:36.486Z,6.60
2017-12-16T23:47:03.930Z,6.60
2017-12-16T23:49:31.387Z,6.70
2017-12-16T23:51:59.602Z,6.70
2017-12-16T23:54:27.057Z,6.70
2017-12-16T23:56:54.510Z,6.80
2017-12-16T23:59:21.974Z,6.80
